Time,TemperatureF,DewpointF,PressureIn,WindDirection,WindDirectionDegrees,WindSpeedMPH,WindSpeedGustMPH,Humidity,HourlyPrecipIn,Conditions,Clouds,dailyrainin,SoftwareType,DateUTC
2013-02-11 00:05:00,7.9,5.0,30.20,NW,326,0.0,1.0,87,0.00,,,0.00,weatherlink.com 1.10,2013-02-11 07:05:00,
2013-02-11 00:20:00,7.7,5.0,30.20,NW,326,0.0,0.0,87,0.00,,,0.00,weatherlink.com 1.10,2013-02-11 07:20:00,
2013-02-11 00:35:00,7.4,4.0,30.20,NW,326,0.0,0.0,87,0.00,,,0.00,weatherlink.com 1.10,2013-02-11 07:35:00,
2013-02-11 00:50:00,7.4,4.0,30.20,NW,326,0.0,0.0,87,0.00,,,0.00,weatherlink.com 1.10,2013-02-11 07:50:00,
2013-02-11 01:05:00,7.3,4.0,30.20,NW,326,0.0,0.0,87,0.00,,,0.00,weatherlink.com 1.10,2013-02-11 08:05:00,
2013-02-11 01:20:00,6.8,4.0,30.20,NW,326,0.0,0.0,86,0.00,,,0.00,weatherlink.com 1.10,2013-02-11 08:20:00,
2013-02-11 01:35:00,5.9,3.0,30.20,NW,326,0.0,0.0,86,0.00,,,0.00,weatherlink.com 1.10,2013-02-11 08:35:00,
2013-02-11 01:50:00,4.9,2.0,30.21,NW,326,0.0,0.0,86,0.00,,,0.00,weatherlink.com 1.10,2013-02-11 08:50:00,
2013-02-11 02:05:00,4.5,2.0,30.21,NW,326,0.0,0.0,87,0.00,,,0.00,weatherlink.com 1.10,2013-02-11 09:05:00,
2013-02-11 02:20:00,3.3,-1.0,30.21,NW,326,0.0,0.0,84,0.00,,,0.00,weatherlink.com 1.10,2013-02-11 09:20:00,
2013-02-11 02:35:00,1.7,-2.0,30.21,NW,326,0.0,0.0,84,0.00,,,0.00,weatherlink.com 1.10,2013-02-11 09:35:00,
2013-02-11 02:50:00,0.4,-3.0,30.21,NW,326,0.0,0.0,84,0.00,,,0.00,weatherlink.com 1.10,2013-02-11 09:50:00,
2013-02-11 03:05:00,-0.7,-4.0,30.20,NW,314,0.0,0.0,85,0.00,,,0.00,weatherlink.com 1.10,2013-02-11 10:05:00,
2013-02-11 03:20:00,-0.1,-3.0,30.21,NW,313,0.0,0.0,88,0.00,,,0.00,weatherlink.com 1.10,2013-02-11 10:20:00,
2013-02-11 03:35:00,-1.7,-5.0,30.21,SSW,207,0.0,2.0,85,0.00,,,0.00,weatherlink.com 1.10,2013-02-11 10:35:00,
2013-02-11 03:50:00,-1.8,-5.0,30.21,SE,138,0.0,0.0,86,0.00,,,0.00,weatherlink.com 1.10,2013-02-11 10:50:00,
2013-02-11 04:06:00,-0.8,-4.0,30.21,SE,141,0.0,0.0,87,0.00,,,0.00,weatherlink.com 1.10,2013-02-11 11:06:00,
2013-02-11 04:21:00,-1.3,-5.0,30.22,South,188,0.0,0.0,85,0.00,,,0.00,weatherlink.com 1.10,2013-02-11 11:21:00,
2013-02-11 04:36:00,-1.8,-5.0,30.22,SSW,212,0.0,0.0,85,0.00,,,0.00,weatherlink.com 1.10,2013-02-11 11:36:00,
2013-02-11 04:51:00,-2.2,-6.0,30.23,SSW,193,0.0,1.0,85,0.00,,,0.00,weatherlink.com 1.10,2013-02-11 11:51:00,
2013-02-11 05:06:00,-1.9,-5.0,30.23,SSW,193,0.0,0.0,86,0.00,,,0.00,weatherlink.com 1.10,2013-02-11 12:06:00,
2013-02-11 05:21:00,-1.8,-5.0,30.24,SSW,193,0.0,0.0,85,0.00,,,0.00,weatherlink.com 1.10,2013-02-11 12:21:00,
2013-02-11 05:36:00,-2.5,-6.0,30.24,SSW,193,0.0,0.0,84,0.00,,,0.00,weatherlink.com 1.10,2013-02-11 12:36:00,
2013-02-11 05:51:00,-2.5,-6.0,30.24,West,259,0.0,0.0,85,0.00,,,0.00,weatherlink.com 1.10,2013-02-11 12:51:00,
2013-02-11 06:06:00,-3.8,-8.0,30.25,West,260,0.0,0.0,83,0.00,,,0.00,weatherlink.com 1.10,2013-02-11 13:06:00,
2013-02-11 06:21:00,-3.0,-6.0,30.25,WSW,239,0.0,2.0,85,0.00,,,0.00,weatherlink.com 1.10,2013-02-11 13:21:00,
2013-02-11 06:36:00,-2.7,-6.0,30.26,WSW,239,0.0,0.0,85,0.00,,,0.00,weatherlink.com 1.10,2013-02-11 13:36:00,
2013-02-11 06:51:00,-2.4,-6.0,30.26,SW,232,0.0,1.0,85,0.00,,,0.00,weatherlink.com 1.10,2013-02-11 13:51:00,
2013-02-11 07:06:00,-3.2,-7.0,30.26,SW,232,0.0,0.0,84,0.00,,,0.00,weatherlink.com 1.10,2013-02-11 14:06:00,
2013-02-11 07:21:00,-3.5,-7.0,30.28,WSW,239,0.0,0.0,83,0.00,,,0.00,weatherlink.com 1.10,2013-02-11 14:21:00,
2013-02-11 07:36:00,-2.5,-6.0,30.28,WSW,239,0.0,0.0,85,0.00,,,0.00,weatherlink.com 1.10,2013-02-11 14:36:00,
2013-02-11 07:51:00,-0.4,-4.0,30.28,SE,141,0.0,2.0,86,0.00,,,0.00,weatherlink.com 1.10,2013-02-11 14:51:00,
2013-02-11 08:06:00,3.1,-1.0,30.29,WSW,250,1.0,2.0,82,0.00,,,0.00,weatherlink.com 1.10,2013-02-11 15:06:00,
2013-02-11 08:21:00,4.8,0.0,30.29,SW,214,2.0,4.0,80,0.00,,,0.00,weatherlink.com 1.10,2013-02-11 15:21:00,
2013-02-11 08:36:00,9.1,3.0,30.30,WSW,240,2.0,2.0,77,0.00,,,0.00,weatherlink.com 1.10,2013-02-11 15:36:00,
2013-02-11 08:51:00,11.8,5.0,30.29,East,98,0.0,1.0,74,0.00,,,0.00,weatherlink.com 1.10,2013-02-11 15:51:00,
2013-02-11 09:06:00,14.1,6.0,30.29,NE,55,0.0,2.0,69,0.00,,,0.00,weatherlink.com 1.10,2013-02-11 16:06:00,
2013-02-11 09:21:00,15.8,7.0,30.29,East,96,1.0,3.0,68,0.00,,,0.00,weatherlink.com 1.10,2013-02-11 16:21:00,
2013-02-11 09:36:00,15.8,7.0,30.28,NNW,328,0.0,3.0,69,0.00,,,0.00,weatherlink.com 1.10,2013-02-11 16:36:00,
2013-02-11 09:51:00,15.0,6.0,30.28,NNE,23,1.0,4.0,68,0.00,,,0.00,weatherlink.com 1.10,2013-02-11 16:51:00,
2013-02-11 10:06:00,15.2,7.0,30.28,North,356,1.0,4.0,69,0.00,,,0.00,weatherlink.com 1.10,2013-02-11 17:06:00,
2013-02-11 10:21:00,16.6,8.0,30.27,NW,314,2.0,7.0,70,0.00,,,0.00,weatherlink.com 1.10,2013-02-11 17:21:00,
2013-02-11 10:36:00,17.9,9.0,30.27,WNW,302,3.0,6.0,67,0.00,,,0.00,weatherlink.com 1.10,2013-02-11 17:36:00,
2013-02-11 10:51:00,18.9,10.0,30.27,NNW,332,0.0,6.0,68,0.00,,,0.00,weatherlink.com 1.10,2013-02-11 17:51:00,
2013-02-11 11:06:00,18.9,11.0,30.27,ENE,68,2.0,7.0,71,0.00,,,0.00,weatherlink.com 1.10,2013-02-11 18:06:00,
2013-02-11 11:21:00,17.7,10.0,30.27,NNE,32,5.0,6.0,72,0.00,,,0.00,weatherlink.com 1.10,2013-02-11 18:21:00,
2013-02-11 11:36:00,16.9,11.0,30.27,NW,306,1.0,5.0,76,0.00,,,0.00,weatherlink.com 1.10,2013-02-11 18:36:00,
2013-02-11 11:51:00,16.1,11.0,30.26,NE,39,2.0,5.0,79,0.00,,,0.00,weatherlink.com 1.10,2013-02-11 18:51:00,
2013-02-11 12:06:00,15.6,11.0,30.26,NE,53,2.0,5.0,80,0.00,,,0.00,weatherlink.com 1.10,2013-02-11 19:06:00,
2013-02-11 12:22:00,15.2,11.0,30.26,North,354,1.0,3.0,82,0.00,,,0.00,weatherlink.com 1.10,2013-02-11 19:22:00,
2013-02-11 12:36:00,15.1,11.0,30.26,NNW,345,0.0,2.0,83,0.00,,,0.00,weatherlink.com 1.10,2013-02-11 19:36:00,
2013-02-11 12:51:00,15.2,11.0,30.26,SE,136,0.0,0.0,83,0.00,,,0.00,weatherlink.com 1.10,2013-02-11 19:51:00,
2013-02-11 13:06:00,15.0,11.0,30.25,ESE,123,0.0,3.0,83,0.00,,,0.00,weatherlink.com 1.10,2013-02-11 20:06:00,
2013-02-11 13:21:00,15.3,11.0,30.25,NNE,33,0.0,3.0,83,0.00,,,0.00,weatherlink.com 1.10,2013-02-11 20:21:00,
2013-02-11 13:36:00,15.6,11.0,30.24,ENE,69,3.0,4.0,81,0.00,,,0.00,weatherlink.com 1.10,2013-02-11 20:36:00,
2013-02-11 13:51:00,16.2,11.0,30.23,ENE,74,0.0,3.0,81,0.00,,,0.00,weatherlink.com 1.10,2013-02-11 20:51:00,
2013-02-11 14:06:00,17.0,12.0,30.23,SE,138,1.0,5.0,80,0.00,,,0.00,weatherlink.com 1.10,2013-02-11 21:06:00,
2013-02-11 14:21:00,17.9,12.0,30.22,East,79,1.0,7.0,79,0.00,,,0.00,weatherlink.com 1.10,2013-02-11 21:21:00,
2013-02-11 14:36:00,18.1,12.0,30.22,East,80,3.0,7.0,78,0.00,,,0.00,weatherlink.com 1.10,2013-02-11 21:36:00,
2013-02-11 14:51:00,19.6,12.0,30.22,NE,46,3.0,5.0,73,0.00,,,0.00,weatherlink.com 1.10,2013-02-11 21:51:00,
2013-02-11 15:06:00,19.7,12.0,30.22,East,101,4.0,7.0,73,0.00,,,0.00,weatherlink.com 1.10,2013-02-11 22:06:00,
2013-02-11 15:21:00,18.3,12.0,30.23,East,89,3.0,8.0,76,0.00,,,0.00,weatherlink.com 1.10,2013-02-11 22:21:00,
2013-02-11 15:36:00,17.3,12.0,30.24,ENE,75,2.0,8.0,79,0.00,,,0.00,weatherlink.com 1.10,2013-02-11 22:36:00,
2013-02-11 15:51:00,17.0,12.0,30.24,ESE,119,4.0,6.0,81,0.00,,,0.00,weatherlink.com 1.10,2013-02-11 22:51:00,
2013-02-11 16:07:00,16.0,11.0,30.24,NE,56,1.0,6.0,81,0.00,,,0.00,weatherlink.com 1.10,2013-02-11 23:07:00,
2013-02-11 16:22:00,15.6,11.0,30.25,NE,52,1.0,5.0,83,0.00,,,0.00,weatherlink.com 1.10,2013-02-11 23:22:00,
2013-02-11 16:37:00,15.1,11.0,30.26,East,86,3.0,4.0,84,0.00,,,0.00,weatherlink.com 1.10,2013-02-11 23:37:00,
2013-02-11 16:52:00,14.3,10.0,30.27,NNE,20,0.0,4.0,84,0.00,,,0.00,weatherlink.com 1.10,2013-02-11 23:52:00,
2013-02-11 17:07:00,13.6,10.0,30.27,ESE,119,0.0,3.0,86,0.00,,,0.00,weatherlink.com 1.10,2013-02-12 00:07:00,
2013-02-11 17:22:00,12.7,10.0,30.27,East,84,0.0,3.0,87,0.00,,,0.00,weatherlink.com 1.10,2013-02-12 00:22:00,
2013-02-11 17:37:00,12.2,9.0,30.29,East,85,0.0,1.0,88,0.00,,,0.00,weatherlink.com 1.10,2013-02-12 00:37:00,
2013-02-11 17:52:00,12.0,9.0,30.29,SSW,208,0.0,2.0,88,0.00,,,0.00,weatherlink.com 1.10,2013-02-12 00:52:00,
2013-02-11 18:07:00,11.8,9.0,30.29,SW,228,0.0,0.0,88,0.00,,,0.00,weatherlink.com 1.10,2013-02-12 01:07:00,
2013-02-11 18:22:00,11.3,9.0,30.30,WNW,297,0.0,0.0,88,0.00,,,0.00,weatherlink.com 1.10,2013-02-12 01:22:00,
2013-02-11 18:37:00,10.7,8.0,30.31,SE,127,0.0,0.0,87,0.00,,,0.00,weatherlink.com 1.10,2013-02-12 01:37:00,
2013-02-11 18:52:00,9.3,6.0,30.31,SSE,148,1.0,3.0,87,0.00,,,0.00,weatherlink.com 1.10,2013-02-12 01:52:00,
2013-02-11 19:07:00,8.9,6.0,30.32,SE,139,0.0,2.0,87,0.00,,,0.00,weatherlink.com 1.10,2013-02-12 02:07:00,
2013-02-11 19:22:00,7.6,5.0,30.32,WSW,245,0.0,4.0,87,0.00,,,0.00,weatherlink.com 1.10,2013-02-12 02:22:00,
2013-02-11 19:37:00,8.6,6.0,30.33,SW,224,2.0,4.0,87,0.00,,,0.00,weatherlink.com 1.10,2013-02-12 02:37:00,
2013-02-11 19:52:00,10.6,6.0,30.33,WSW,252,6.0,8.0,81,0.00,,,0.00,weatherlink.com 1.10,2013-02-12 02:52:00,
2013-02-11 20:07:00,11.2,5.0,30.34,NW,314,3.0,6.0,77,0.00,,,0.00,weatherlink.com 1.10,2013-02-12 03:07:00,
2013-02-11 20:22:00,10.9,5.0,30.34,WSW,245,1.0,4.0,76,0.00,,,0.00,weatherlink.com 1.10,2013-02-12 03:22:00,
2013-02-11 20:37:00,10.2,4.0,30.35,West,262,2.0,3.0,76,0.00,,,0.00,weatherlink.com 1.10,2013-02-12 03:37:00,
2013-02-11 20:52:00,9.4,3.0,30.35,WSW,257,0.0,2.0,76,0.00,,,0.00,weatherlink.com 1.10,2013-02-12 03:52:00,
2013-02-11 21:07:00,8.9,3.0,30.36,SW,215,0.0,5.0,76,0.00,,,0.00,weatherlink.com 1.10,2013-02-12 04:07:00,
2013-02-11 21:22:00,7.2,2.0,30.36,West,260,1.0,3.0,79,0.00,,,0.00,weatherlink.com 1.10,2013-02-12 04:22:00,
2013-02-11 21:37:00,8.0,2.0,30.36,SW,226,0.0,5.0,75,0.00,,,0.00,weatherlink.com 1.10,2013-02-12 04:37:00,
2013-02-11 21:52:00,7.0,1.0,30.36,West,264,0.0,1.0,77,0.00,,,0.00,weatherlink.com 1.10,2013-02-12 04:52:00,
2013-02-11 22:07:00,7.1,2.0,30.36,SW,217,1.0,8.0,78,0.00,,,0.00,weatherlink.com 1.10,2013-02-12 05:07:00,
2013-02-11 22:22:00,8.4,2.0,30.36,SW,233,2.0,7.0,75,0.00,,,0.00,weatherlink.com 1.10,2013-02-12 05:22:00,
2013-02-11 22:37:00,9.1,2.0,30.35,WNW,298,3.0,10.0,73,0.00,,,0.00,weatherlink.com 1.10,2013-02-12 05:37:00,
2013-02-11 22:52:00,10.9,3.0,30.36,West,263,2.0,12.0,69,0.00,,,0.00,weatherlink.com 1.10,2013-02-12 05:52:00,
2013-02-11 23:07:00,10.5,2.0,30.36,WNW,293,0.0,5.0,68,0.00,,,0.00,weatherlink.com 1.10,2013-02-12 06:07:00,
2013-02-11 23:22:00,10.6,1.0,30.36,WNW,285,4.0,9.0,66,0.00,,,0.00,weatherlink.com 1.10,2013-02-12 06:22:00,
2013-02-11 23:37:00,10.7,1.0,30.36,West,274,3.0,12.0,65,0.00,,,0.00,weatherlink.com 1.10,2013-02-12 06:37:00,
2013-02-11 23:52:00,11.0,1.0,30.36,WNW,297,1.0,10.0,63,0.00,,,0.00,weatherlink.com 1.10,2013-02-12 06:52:00,